sensor_id;sensor_type;location;lat;lon;timestamp;pressure;altitude;pressure_sealevel;temperature;humidity
20971;BME280;10644;48.834;10.088;2023-02-17T00:00:35;97487.22;;;13.68;45.85
20971;BME280;10644;48.834;10.088;2023-02-17T00:03:03;97487.41;;;13.65;45.45
20971;BME280;10644;48.834;10.088;2023-02-17T00:05:40;97492.38;;;13.68;45.82
20971;BME280;10644;48.834;10.088;2023-02-17T00:08:13;97494.88;;;13.69;45.87
20971;BME280;10644;48.834;10.088;2023-02-17T00:10:41;97490.19;;;13.60;45.31
20971;BME280;10644;48.834;10.088;2023-02-17T00:13:09;97494.53;;;13.60;45.05
20971;BME280;10644;48.834;10.088;2023-02-17T00:15:37;97494.88;;;13.69;45.25
20971;BME280;10644;48.834;10.088;2023-02-17T00:18:22;97486.09;;;13.73;45.39
20971;BME280;10644;48.834;10.088;2023-02-17T00:21:14;97481.59;;;13.77;45.42
20971;BME280;10644;48.834;10.088;2023-02-17T00:23:44;97471.28;;;13.77;45.04
20971;BME280;10644;48.834;10.088;2023-02-17T00:26:27;97472.47;;;13.87;45.09
20971;BME280;10644;48.834;10.088;2023-02-17T00:28:59;97466.41;;;13.88;45.22
20971;BME280;10644;48.834;10.088;2023-02-17T00:31:25;97463.81;;;13.88;45.26
20971;BME280;10644;48.834;10.088;2023-02-17T00:33:54;97465.47;;;13.89;45.27
20971;BME280;10644;48.834;10.088;2023-02-17T00:36:41;97468.56;;;13.95;45.20
20971;BME280;10644;48.834;10.088;2023-02-17T00:39:07;97461.00;;;13.92;45.20
20971;BME280;10644;48.834;10.088;2023-02-17T00:41:46;97463.47;;;13.94;45.08
20971;BME280;10644;48.834;10.088;2023-02-17T00:44:22;97460.84;;;13.95;45.21
20971;BME280;10644;48.834;10.088;2023-02-17T00:46:53;97464.97;;;13.98;45.38
20971;BME280;10644;48.834;10.088;2023-02-17T00:49:26;97472.94;;;13.93;45.86
20971;BME280;10644;48.834;10.088;2023-02-17T00:51:52;97481.50;;;13.94;45.69
20971;BME280;10644;48.834;10.088;2023-02-17T00:54:20;97476.38;;;13.94;46.05
20971;BME280;10644;48.834;10.088;2023-02-17T00:56:45;97474.13;;;13.88;45.82
20971;BME280;10644;48.834;10.088;2023-02-17T00:59:24;97482.44;;;13.93;45.63
20971;BME280;10644;48.834;10.088;2023-02-17T01:01:51;97478.28;;;13.90;45.73
20971;BME280;10644;48.834;10.088;2023-02-17T01:04:23;97486.94;;;13.89;45.63
20971;BME280;10644;48.834;10.088;2023-02-17T01:06:55;97481.09;;;13.86;45.34
20971;BME280;10644;48.834;10.088;2023-02-17T01:09:52;97479.41;;;13.85;45.53
20971;BME280;10644;48.834;10.088;2023-02-17T01:12:27;97472.81;;;13.81;45.45
20971;BME280;10644;48.834;10.088;2023-02-17T01:15:07;97472.94;;;13.78;45.42
20971;BME280;10644;48.834;10.088;2023-02-17T01:17:35;97463.72;;;13.74;45.87
20971;BME280;10644;48.834;10.088;2023-02-17T01:20:15;97464.06;;;13.68;45.52
20971;BME280;10644;48.834;10.088;2023-02-17T01:22:42;97468.13;;;13.72;45.39
20971;BME280;10644;48.834;10.088;2023-02-17T01:25:20;97455.19;;;13.73;45.78
20971;BME280;10644;48.834;10.088;2023-02-17T01:27:46;97455.84;;;13.77;45.88
20971;BME280;10644;48.834;10.088;2023-02-17T01:30:12;97445.53;;;13.77;45.72
20971;BME280;10644;48.834;10.088;2023-02-17T01:32:39;97448.84;;;13.79;45.79
20971;BME280;10644;48.834;10.088;2023-02-17T01:35:07;97438.88;;;13.73;45.58
20971;BME280;10644;48.834;10.088;2023-02-17T01:37:46;97434.47;;;13.75;45.62
20971;BME280;10644;48.834;10.088;2023-02-17T01:40:13;97445.53;;;13.77;45.73
20971;BME280;10644;48.834;10.088;2023-02-17T01:42:39;97441.91;;;13.81;45.38
20971;BME280;10644;48.834;10.088;2023-02-17T01:45:43;97447.19;;;13.78;45.69
20971;BME280;10644;48.834;10.088;2023-02-17T01:48:14;97445.69;;;13.74;45.69
20971;BME280;10644;48.834;10.088;2023-02-17T01:50:53;97432.16;;;13.55;45.79
20971;BME280;10644;48.834;10.088;2023-02-17T01:53:27;97436.13;;;13.60;45.65
20971;BME280;10644;48.834;10.088;2023-02-17T01:59:04;97431.97;;;13.58;46.40
20971;BME280;10644;48.834;10.088;2023-02-17T02:01:36;97427.59;;;13.60;46.34
20971;BME280;10644;48.834;10.088;2023-02-17T02:04:27;97421.13;;;13.53;46.29
20971;BME280;10644;48.834;10.088;2023-02-17T02:07:01;97430.72;;;13.49;46.73
20971;BME280;10644;48.834;10.088;2023-02-17T02:09:45;97413.31;;;13.39;46.20
20971;BME280;10644;48.834;10.088;2023-02-17T02:12:21;97410.72;;;13.39;46.34
20971;BME280;10644;48.834;10.088;2023-02-17T02:14:48;97412.81;;;13.48;46.42
20971;BME280;10644;48.834;10.088;2023-02-17T02:32:31;97396.88;;;13.57;46.20
20971;BME280;10644;48.834;10.088;2023-02-17T02:35:31;97395.88;;;13.44;46.48
20971;BME280;10644;48.834;10.088;2023-02-17T02:38:29;97387.63;;;13.38;46.38
20971;BME280;10644;48.834;10.088;2023-02-17T02:41:18;97382.16;;;13.28;46.33
20971;BME280;10644;48.834;10.088;2023-02-17T02:43:47;97378.34;;;13.35;46.34
20971;BME280;10644;48.834;10.088;2023-02-17T02:46:15;97374.13;;;13.34;46.46
20971;BME280;10644;48.834;10.088;2023-02-17T02:48:52;97369.97;;;13.47;46.72
20971;BME280;10644;48.834;10.088;2023-02-17T02:57:53;97366.16;;;13.54;46.02
20971;BME280;10644;48.834;10.088;2023-02-17T03:00:38;97371.06;;;13.43;46.58
20971;BME280;10644;48.834;10.088;2023-02-17T03:03:12;97372.53;;;13.32;46.95
20971;BME280;10644;48.834;10.088;2023-02-17T03:08:55;97365.31;;;13.38;46.79
20971;BME280;10644;48.834;10.088;2023-02-17T03:11:42;97375.09;;;13.47;46.26
20971;BME280;10644;48.834;10.088;2023-02-17T03:14:16;97365.31;;;13.38;46.35
20971;BME280;10644;48.834;10.088;2023-02-17T03:17:13;97374.13;;;13.34;46.77
20971;BME280;10644;48.834;10.088;2023-02-17T03:19:51;97365.66;;;13.32;46.80
20971;BME280;10644;48.834;10.088;2023-02-17T03:22:28;97375.69;;;13.21;46.82
20971;BME280;10644;48.834;10.088;2023-02-17T03:24:57;97367.31;;;13.33;47.08
20971;BME280;10644;48.834;10.088;2023-02-17T03:27:24;97358.34;;;13.40;46.91
20971;BME280;10644;48.834;10.088;2023-02-17T03:29:57;97361.50;;;13.45;46.92
20971;BME280;10644;48.834;10.088;2023-02-17T03:32:28;97369.81;;;13.50;46.64
20971;BME280;10644;48.834;10.088;2023-02-17T03:35:12;97361.69;;;13.42;46.62
20971;BME280;10644;48.834;10.088;2023-02-17T03:37:42;97365.72;;;13.46;46.66
20971;BME280;10644;48.834;10.088;2023-02-17T03:40:10;97360.91;;;13.40;46.77
20971;BME280;10644;48.834;10.088;2023-02-17T03:42:36;97354.84;;;13.41;46.96
20971;BME280;10644;48.834;10.088;2023-02-17T03:45:02;97359.19;;;13.25;47.18
20971;BME280;10644;48.834;10.088;2023-02-17T03:47:33;97357.16;;;13.30;46.98
20971;BME280;10644;48.834;10.088;2023-02-17T03:49:59;97348.22;;;13.37;47.19
20971;BME280;10644;48.834;10.088;2023-02-17T03:52:29;97346.31;;;13.41;47.15
20971;BME280;10644;48.834;10.088;2023-02-17T03:54:55;97347.38;;;13.37;47.29
20971;BME280;10644;48.834;10.088;2023-02-17T03:57:35;97351.78;;;13.35;47.78
20971;BME280;10644;48.834;10.088;2023-02-17T04:00:02;97344.09;;;13.35;47.40
20971;BME280;10644;48.834;10.088;2023-02-17T04:02:30;97344.31;;;13.30;47.68
20971;BME280;10644;48.834;10.088;2023-02-17T04:05:01;97351.72;;;13.36;47.81
20971;BME280;10644;48.834;10.088;2023-02-17T04:07:33;97361.31;;;13.32;48.15
20971;BME280;10644;48.834;10.088;2023-02-17T04:10:00;97359.00;;;13.28;48.05
20971;BME280;10644;48.834;10.088;2023-02-17T04:12:36;97352.03;;;13.30;48.24
20971;BME280;10644;48.834;10.088;2023-02-17T04:17:58;97348.38;;;13.34;48.33
20971;BME280;10644;48.834;10.088;2023-02-17T04:20:28;97335.59;;;13.17;48.68
20971;BME280;10644;48.834;10.088;2023-02-17T04:25:59;97355.78;;;13.25;48.98
20971;BME280;10644;48.834;10.088;2023-02-17T04:28:40;97358.69;;;13.34;48.40
20971;BME280;10644;48.834;10.088;2023-02-17T04:31:30;97357.50;;;13.24;48.90
20971;BME280;10644;48.834;10.088;2023-02-17T04:33:57;97367.63;;;13.27;49.02
20971;BME280;10644;48.834;10.088;2023-02-17T04:36:22;97360.50;;;13.48;48.49
20971;BME280;10644;48.834;10.088;2023-02-17T04:38:48;97364.34;;;13.25;49.05
20971;BME280;10644;48.834;10.088;2023-02-17T04:41:14;97364.75;;;13.33;49.14
20971;BME280;10644;48.834;10.088;2023-02-17T04:44:07;97358.84;;;13.31;49.20
20971;BME280;10644;48.834;10.088;2023-02-17T04:46:44;97374.59;;;13.10;49.61
20971;BME280;10644;48.834;10.088;2023-02-17T04:49:19;97367.59;;;12.96;50.66
20971;BME280;10644;48.834;10.088;2023-02-17T04:51:53;97358.75;;;13.17;49.89
20971;BME280;10644;48.834;10.088;2023-02-17T04:54:35;97361.69;;;13.42;49.49
20971;BME280;10644;48.834;10.088;2023-02-17T04:57:00;97365.13;;;13.41;49.69
20971;BME280;10644;48.834;10.088;2023-02-17T04:59:25;97360.09;;;13.55;49.36
20971;BME280;10644;48.834;10.088;2023-02-17T05:01:51;97376.53;;;13.37;50.11
20971;BME280;10644;48.834;10.088;2023-02-17T05:04:24;97368.50;;;13.28;50.30
20971;BME280;10644;48.834;10.088;2023-02-17T05:06:56;97360.59;;;13.15;50.29
20971;BME280;10644;48.834;10.088;2023-02-17T05:09:30;97366.91;;;13.25;50.32
20971;BME280;10644;48.834;10.088;2023-02-17T05:11:56;97354.44;;;13.33;50.13
20971;BME280;10644;48.834;10.088;2023-02-17T05:14:29;97350.88;;;13.51;49.77
20971;BME280;10644;48.834;10.088;2023-02-17T05:16:55;97358.19;;;13.28;50.56
20971;BME280;10644;48.834;10.088;2023-02-17T05:19:23;97364.16;;;13.28;50.63
20971;BME280;10644;48.834;10.088;2023-02-17T05:22:01;97349.16;;;13.36;50.04
20971;BME280;10644;48.834;10.088;2023-02-17T05:24:28;97354.19;;;13.22;50.79
20971;BME280;10644;48.834;10.088;2023-02-17T05:26:58;97356.81;;;13.05;51.35
20971;BME280;10644;48.834;10.088;2023-02-17T05:29:28;97353.28;;;13.23;51.24
20971;BME280;10644;48.834;10.088;2023-02-17T05:31:56;97344.56;;;13.26;51.15
20971;BME280;10644;48.834;10.088;2023-02-17T05:34:30;97347.06;;;13.27;51.60
20971;BME280;10644;48.834;10.088;2023-02-17T05:37:03;97355.78;;;13.25;51.06
20971;BME280;10644;48.834;10.088;2023-02-17T05:39:33;97352.03;;;13.30;51.22
20971;BME280;10644;48.834;10.088;2023-02-17T05:41:58;97352.69;;;13.18;51.50
20971;BME280;10644;48.834;10.088;2023-02-17T05:44:27;97348.19;;;13.06;51.94
20971;BME280;10644;48.834;10.088;2023-02-17T05:46:54;97348.06;;;13.09;52.12
20971;BME280;10644;48.834;10.088;2023-02-17T05:49:35;97354.94;;;13.24;51.38
20971;BME280;10644;48.834;10.088;2023-02-17T05:52:12;97356.03;;;13.20;51.97
20971;BME280;10644;48.834;10.088;2023-02-17T05:54:43;97351.03;;;13.17;52.13
20971;BME280;10644;48.834;10.088;2023-02-17T06:00:28;97351.22;;;13.14;52.50
20971;BME280;10644;48.834;10.088;2023-02-17T06:06:14;97361.41;;;13.16;52.59
20971;BME280;10644;48.834;10.088;2023-02-17T06:08:49;97370.28;;;13.10;52.48
20971;BME280;10644;48.834;10.088;2023-02-17T06:14:27;97379.66;;;12.94;53.73
20971;BME280;10644;48.834;10.088;2023-02-17T06:19:51;97380.91;;;13.04;53.30
20971;BME280;10644;48.834;10.088;2023-02-17T06:22:40;97387.84;;;13.02;53.03
20971;BME280;10644;48.834;10.088;2023-02-17T06:25:07;97381.41;;;13.11;53.62
20971;BME280;10644;48.834;10.088;2023-02-17T06:27:33;97388.16;;;12.96;53.90
20971;BME280;10644;48.834;10.088;2023-02-17T06:30:07;97392.50;;;12.96;53.88
20971;BME280;10644;48.834;10.088;2023-02-17T06:32:33;97382.41;;;12.91;53.65
20971;BME280;10644;48.834;10.088;2023-02-17T06:35:22;97388.69;;;13.18;53.73
20971;BME280;10644;48.834;10.088;2023-02-17T06:37:48;97391.09;;;13.06;53.69
20971;BME280;10644;48.834;10.088;2023-02-17T06:40:16;97388.88;;;13.15;54.13
20971;BME280;10644;48.834;10.088;2023-02-17T06:42:41;97386.38;;;13.14;53.95
20971;BME280;10644;48.834;10.088;2023-02-17T06:45:07;97394.16;;;13.12;54.31
20971;BME280;10644;48.834;10.088;2023-02-17T06:51:08;97390.22;;;13.22;53.49
20971;BME280;10644;48.834;10.088;2023-02-17T06:53:34;97390.69;;;13.13;53.82
20971;BME280;10644;48.834;10.088;2023-02-17T06:56:04;97398.09;;;13.19;54.06
20971;BME280;10644;48.834;10.088;2023-02-17T06:58:36;97388.03;;;13.15;54.13
20971;BME280;10644;48.834;10.088;2023-02-17T07:01:16;97392.31;;;12.99;54.37
20971;BME280;10644;48.834;10.088;2023-02-17T07:03:58;97394.09;;;13.14;53.85
20971;BME280;10644;48.834;10.088;2023-02-17T07:06:34;97395.81;;;13.13;53.84
20971;BME280;10644;48.834;10.088;2023-02-17T07:09:03;97401.81;;;13.29;53.71
20971;BME280;10644;48.834;10.088;2023-02-17T07:11:57;97411.25;;;13.13;54.10
20971;BME280;10644;48.834;10.088;2023-02-17T07:14:47;97404.47;;;13.12;54.57
20971;BME280;10644;48.834;10.088;2023-02-17T07:17:17;97408.28;;;13.05;54.52
20971;BME280;10644;48.834;10.088;2023-02-17T07:23:11;97422.06;;;13.20;54.14
20971;BME280;10644;48.834;10.088;2023-02-17T07:25:49;97426.03;;;13.10;55.22
20971;BME280;10644;48.834;10.088;2023-02-17T07:28:18;97420.22;;;13.06;55.41
20971;BME280;10644;48.834;10.088;2023-02-17T07:31:20;97414.44;;;13.18;54.78
20971;BME280;10644;48.834;10.088;2023-02-17T07:33:57;97418.59;;;13.21;54.98
20971;BME280;10644;48.834;10.088;2023-02-17T07:36:24;97410.78;;;13.22;55.23
20971;BME280;10644;48.834;10.088;2023-02-17T07:38:50;97405.97;;;13.32;54.56
20971;BME280;10644;48.834;10.088;2023-02-17T07:41:22;97403.13;;;13.53;54.23
20971;BME280;10644;48.834;10.088;2023-02-17T07:44:12;97404.84;;;13.68;53.74
20971;BME280;10644;48.834;10.088;2023-02-17T07:46:37;97403.28;;;13.81;53.71
20971;BME280;10644;48.834;10.088;2023-02-17T07:49:04;97402.16;;;13.85;52.75
20971;BME280;10644;48.834;10.088;2023-02-17T07:51:52;97408.16;;;13.85;52.86
20971;BME280;10644;48.834;10.088;2023-02-17T07:54:27;97404.34;;;13.77;52.75
20971;BME280;10644;48.834;10.088;2023-02-17T07:57:09;97403.03;;;13.70;53.09
20971;BME280;10644;48.834;10.088;2023-02-17T07:59:39;97403.81;;;13.86;52.53
20971;BME280;10644;48.834;10.088;2023-02-17T08:02:13;97415.97;;;13.84;52.67
20971;BME280;10644;48.834;10.088;2023-02-17T08:04:39;97424.50;;;14.00;52.40
20971;BME280;10644;48.834;10.088;2023-02-17T08:07:06;97427.25;;;13.97;52.29
20971;BME280;10644;48.834;10.088;2023-02-17T08:09:45;97424.59;;;13.83;52.15
20971;BME280;10644;48.834;10.088;2023-02-17T08:12:35;97419.22;;;13.72;52.24
20971;BME280;10644;48.834;10.088;2023-02-17T08:15:53;97426.00;;;13.73;52.40
20971;BME280;10644;48.834;10.088;2023-02-17T08:18:20;97419.78;;;13.77;52.20
20971;BME280;10644;48.834;10.088;2023-02-17T08:20:48;97418.28;;;13.73;51.88
20971;BME280;10644;48.834;10.088;2023-02-17T08:23:19;97423.00;;;13.49;52.28
20971;BME280;10644;48.834;10.088;2023-02-17T08:25:49;97423.25;;;13.45;52.29
20971;BME280;10644;48.834;10.088;2023-02-17T08:28:33;97429.97;;;13.32;52.68
20971;BME280;10644;48.834;10.088;2023-02-17T08:31:01;97426.16;;;13.24;53.08
20971;BME280;10644;48.834;10.088;2023-02-17T08:33:32;97433.88;;;13.24;52.97
20971;BME280;10644;48.834;10.088;2023-02-17T08:39:37;97437.53;;;13.03;53.73
20971;BME280;10644;48.834;10.088;2023-02-17T08:42:04;97444.63;;;13.15;53.73
20971;BME280;10644;48.834;10.088;2023-02-17T08:44:29;97440.13;;;13.03;53.93
20971;BME280;10644;48.834;10.088;2023-02-17T08:47:03;97428.84;;;13.05;53.93
20971;BME280;10644;48.834;10.088;2023-02-17T08:52:30;97441.00;;;13.19;53.73
20971;BME280;10644;48.834;10.088;2023-02-17T08:55:03;97428.41;;;13.30;53.89
20971;BME280;10644;48.834;10.088;2023-02-17T08:57:33;97446.59;;;13.42;53.57
20971;BME280;10644;48.834;10.088;2023-02-17T09:00:12;97441.28;;;13.45;53.13
20971;BME280;10644;48.834;10.088;2023-02-17T09:02:40;97438.72;;;13.60;53.55
20971;BME280;10644;48.834;10.088;2023-02-17T09:05:19;97448.25;;;13.43;53.88
20971;BME280;10644;48.834;10.088;2023-02-17T09:07:53;97440.69;;;13.40;53.77
20971;BME280;10644;48.834;10.088;2023-02-17T09:10:22;97429.91;;;13.34;54.22
20971;BME280;10644;48.834;10.088;2023-02-17T09:12:54;97437.38;;;13.38;54.46
20971;BME280;10644;48.834;10.088;2023-02-17T09:15:20;97447.03;;;13.50;54.54
20971;BME280;10644;48.834;10.088;2023-02-17T09:17:53;97433.00;;;13.56;54.20
20971;BME280;10644;48.834;10.088;2023-02-17T09:20:40;97441.47;;;13.73;53.70
20971;BME280;10644;48.834;10.088;2023-02-17T09:23:13;97452.00;;;13.84;53.39
20971;BME280;10644;48.834;10.088;2023-02-17T09:29:11;97441.06;;;13.65;54.21
20971;BME280;10644;48.834;10.088;2023-02-17T09:31:40;97464.88;;;13.53;54.62
20971;BME280;10644;48.834;10.088;2023-02-17T09:37:49;97454.00;;;13.48;54.61
20971;BME280;10644;48.834;10.088;2023-02-17T09:40:23;97447.88;;;13.66;54.53
20971;BME280;10644;48.834;10.088;2023-02-17T09:43:07;97456.66;;;13.62;54.92
20971;BME280;10644;48.834;10.088;2023-02-17T09:45:38;97462.00;;;13.59;54.66
20971;BME280;10644;48.834;10.088;2023-02-17T09:48:10;97457.31;;;13.50;55.22
20971;BME280;10644;48.834;10.088;2023-02-17T09:50:55;97460.16;;;13.61;55.70
20971;BME280;10644;48.834;10.088;2023-02-17T09:56:23;97450.09;;;13.72;54.98
20971;BME280;10644;48.834;10.088;2023-02-17T09:59:28;97450.19;;;13.70;55.39
20971;BME280;10644;48.834;10.088;2023-02-17T10:05:35;97449.25;;;13.71;55.65
20971;BME280;10644;48.834;10.088;2023-02-17T10:08:13;97451.63;;;13.76;55.87
20971;BME280;10644;48.834;10.088;2023-02-17T10:11:03;97464.50;;;13.76;55.87
20971;BME280;10644;48.834;10.088;2023-02-17T10:13:56;97450.84;;;13.74;56.59
20971;BME280;10644;48.834;10.088;2023-02-17T10:16:47;97450.34;;;13.83;56.22
20971;BME280;10644;48.834;10.088;2023-02-17T10:19:29;97468.53;;;13.80;57.12
20971;BME280;10644;48.834;10.088;2023-02-17T10:22:16;97459.50;;;13.73;57.85
20971;BME280;10644;48.834;10.088;2023-02-17T10:24:44;97458.09;;;13.83;57.74
20971;BME280;10644;48.834;10.088;2023-02-17T10:27:38;97452.09;;;13.98;57.92
20971;BME280;10644;48.834;10.088;2023-02-17T10:33:37;97439.38;;;13.95;57.86
20971;BME280;10644;48.834;10.088;2023-02-17T10:36:24;97440.81;;;14.00;58.34
20971;BME280;10644;48.834;10.088;2023-02-17T10:39:13;97432.47;;;14.11;57.98
20971;BME280;10644;48.834;10.088;2023-02-17T10:42:05;97426.91;;;14.18;58.35
20971;BME280;10644;48.834;10.088;2023-02-17T10:50:52;97408.41;;;14.41;58.58
20971;BME280;10644;48.834;10.088;2023-02-17T10:53:50;97407.63;;;14.69;57.85
20971;BME280;10644;48.834;10.088;2023-02-17T10:56:53;97405.63;;;14.74;57.48
20971;BME280;10644;48.834;10.088;2023-02-17T10:59:23;97416.22;;;14.83;57.24
20971;BME280;10644;48.834;10.088;2023-02-17T11:02:16;97412.06;;;14.81;57.48
20971;BME280;10644;48.834;10.088;2023-02-17T11:04:48;97412.78;;;14.69;57.43
20971;BME280;10644;48.834;10.088;2023-02-17T11:07:22;97412.97;;;14.66;57.96
20971;BME280;10644;48.834;10.088;2023-02-17T11:10:01;97413.06;;;14.64;58.28
20971;BME280;10644;48.834;10.088;2023-02-17T11:12:51;97426.28;;;14.88;57.59
20971;BME280;10644;48.834;10.088;2023-02-17T11:15:45;97425.44;;;15.01;57.31
20971;BME280;10644;48.834;10.088;2023-02-17T11:18:20;97423.16;;;15.11;57.20
20971;BME280;10644;48.834;10.088;2023-02-17T11:21:06;97406.94;;;15.23;56.67
20971;BME280;10644;48.834;10.088;2023-02-17T11:23:35;97407.13;;;15.06;57.19
20971;BME280;10644;48.834;10.088;2023-02-17T11:26:09;97414.75;;;14.93;57.47
20971;BME280;10644;48.834;10.088;2023-02-17T11:28:40;97422.59;;;15.06;57.42
20971;BME280;10644;48.834;10.088;2023-02-17T11:31:06;97412.66;;;15.00;57.59
20971;BME280;10644;48.834;10.088;2023-02-17T11:33:51;97404.91;;;15.00;57.22
20971;BME280;10644;48.834;10.088;2023-02-17T11:36:31;97419.00;;;15.22;56.65
20971;BME280;10644;48.834;10.088;2023-02-17T11:39:16;97411.53;;;15.18;56.74
20971;BME280;10644;48.834;10.088;2023-02-17T11:41:44;97383.88;;;15.20;56.54
20971;BME280;10644;48.834;10.088;2023-02-17T11:50:00;97382.59;;;15.13;56.91
20971;BME280;10644;48.834;10.088;2023-02-17T12:38:30;97397.72;;;15.19;59.04
20971;BME280;10644;48.834;10.088;2023-02-17T12:41:07;97405.44;;;15.19;59.03
20971;BME280;10644;48.834;10.088;2023-02-17T12:47:23;97401.13;;;15.33;59.06
20971;BME280;10644;48.834;10.088;2023-02-17T12:50:14;97399.09;;;15.38;58.61
20971;BME280;10644;48.834;10.088;2023-02-17T12:53:21;97393.94;;;15.52;58.63
20971;BME280;10644;48.834;10.088;2023-02-17T12:55:56;97391.81;;;15.45;58.58
20971;BME280;10644;48.834;10.088;2023-02-17T12:58:31;97381.84;;;15.53;58.41
20971;BME280;10644;48.834;10.088;2023-02-17T13:01:16;97379.47;;;15.76;57.95
20971;BME280;10644;48.834;10.088;2023-02-17T13:03:51;97385.97;;;15.55;58.43
20971;BME280;10644;48.834;10.088;2023-02-17T13:06:40;97382.22;;;15.61;58.71
20971;BME280;10644;48.834;10.088;2023-02-17T13:12:38;97385.66;;;15.74;58.68
20971;BME280;10644;48.834;10.088;2023-02-17T13:15:35;97376.28;;;15.59;59.40
20971;BME280;10644;48.834;10.088;2023-02-17T13:18:06;97376.84;;;15.64;59.18
20971;BME280;10644;48.834;10.088;2023-02-17T13:24:13;97369.28;;;15.61;59.08
20971;BME280;10644;48.834;10.088;2023-02-17T13:45:48;97382.59;;;15.41;59.35
20971;BME280;10644;48.834;10.088;2023-02-17T13:48:25;97380.53;;;15.32;59.77
20971;BME280;10644;48.834;10.088;2023-02-17T13:53:53;97377.59;;;15.52;59.30
20971;BME280;10644;48.834;10.088;2023-02-17T13:56:55;97385.66;;;15.33;59.96
20971;BME280;10644;48.834;10.088;2023-02-17T13:59:25;97375.22;;;15.21;60.34
20971;BME280;10644;48.834;10.088;2023-02-17T14:01:53;97374.19;;;15.23;60.47
20971;BME280;10644;48.834;10.088;2023-02-17T14:04:38;97377.06;;;15.47;59.89
20971;BME280;10644;48.834;10.088;2023-02-17T14:07:16;97371.44;;;15.40;59.67
20971;BME280;10644;48.834;10.088;2023-02-17T14:09:57;97368.38;;;15.20;60.17
20971;BME280;10644;48.834;10.088;2023-02-17T14:12:25;97369.22;;;15.20;60.26
20971;BME280;10644;48.834;10.088;2023-02-17T14:14:51;97379.28;;;15.39;60.13
20971;BME280;10644;48.834;10.088;2023-02-17T14:17:31;97370.69;;;15.52;59.36
20971;BME280;10644;48.834;10.088;2023-02-17T14:20:00;97364.47;;;15.55;59.21
20971;BME280;10644;48.834;10.088;2023-02-17T14:22:29;97359.53;;;15.52;59.12
20971;BME280;10644;48.834;10.088;2023-02-17T14:25:13;97363.91;;;15.64;59.27
20971;BME280;10644;48.834;10.088;2023-02-17T14:27:50;97358.69;;;15.51;59.39
20971;BME280;10644;48.834;10.088;2023-02-17T14:37:15;97347.72;;;15.48;59.79
20971;BME280;10644;48.834;10.088;2023-02-17T14:40:04;97342.94;;;15.42;59.85
20971;BME280;10644;48.834;10.088;2023-02-17T14:42:37;97338.88;;;15.38;60.24
20971;BME280;10644;48.834;10.088;2023-02-17T14:45:06;97349.50;;;15.33;60.18
20971;BME280;10644;48.834;10.088;2023-02-17T14:47:32;97344.25;;;15.35;60.29
20971;BME280;10644;48.834;10.088;2023-02-17T14:50:23;97352.31;;;15.57;59.56
20971;BME280;10644;48.834;10.088;2023-02-17T14:55:56;97335.50;;;15.64;59.59
20971;BME280;10644;48.834;10.088;2023-02-17T14:58:30;97333.78;;;15.77;59.08
20971;BME280;10644;48.834;10.088;2023-02-17T15:01:03;97338.31;;;15.61;59.56
20971;BME280;10644;48.834;10.088;2023-02-17T15:03:42;97334.31;;;15.69;59.30
20971;BME280;10644;48.834;10.088;2023-02-17T15:09:43;97328.78;;;15.61;59.81
20971;BME280;10644;48.834;10.088;2023-02-17T15:12:17;97321.72;;;15.51;60.05
20971;BME280;10644;48.834;10.088;2023-02-17T15:14:50;97315.81;;;15.49;60.38
20971;BME280;10644;48.834;10.088;2023-02-17T15:17:29;97319.16;;;15.63;59.69
20971;BME280;10644;48.834;10.088;2023-02-17T15:19:55;97322.06;;;15.59;59.80
20971;BME280;10644;48.834;10.088;2023-02-17T15:22:23;97331.84;;;15.54;59.95
20971;BME280;10644;48.834;10.088;2023-02-17T15:28:16;97314.31;;;15.59;60.25
20971;BME280;10644;48.834;10.088;2023-02-17T15:31:09;97312.84;;;15.55;60.44
20971;BME280;10644;48.834;10.088;2023-02-17T15:33:59;97319.13;;;15.51;60.29
20971;BME280;10644;48.834;10.088;2023-02-17T15:36:26;97301.78;;;15.53;60.23
20971;BME280;10644;48.834;10.088;2023-02-17T15:39:01;97311.19;;;15.54;60.42
20971;BME280;10644;48.834;10.088;2023-02-17T15:41:42;97338.88;;;15.52;60.44
20971;BME280;10644;48.834;10.088;2023-02-17T15:44:23;97314.50;;;15.56;60.32
20971;BME280;10644;48.834;10.088;2023-02-17T15:47:10;97315.28;;;15.44;60.51
20971;BME280;10644;48.834;10.088;2023-02-17T15:49:47;97309.47;;;15.40;61.11
20971;BME280;10644;48.834;10.088;2023-02-17T15:52:13;97309.53;;;15.53;60.75
20971;BME280;10644;48.834;10.088;2023-02-17T15:58:04;97308.06;;;15.49;60.71
20971;BME280;10644;48.834;10.088;2023-02-17T16:00:39;97298.47;;;15.51;60.28
20971;BME280;10644;48.834;10.088;2023-02-17T16:03:05;97310.56;;;15.50;60.46
20971;BME280;10644;48.834;10.088;2023-02-17T16:05:50;97298.41;;;15.65;59.95
20971;BME280;10644;48.834;10.088;2023-02-17T16:08:48;97306.31;;;15.76;59.87
20971;BME280;10644;48.834;10.088;2023-02-17T16:11:50;97313.38;;;15.60;60.17
20971;BME280;10644;48.834;10.088;2023-02-17T16:14:43;97316.59;;;15.63;60.18
20971;BME280;10644;48.834;10.088;2023-02-17T16:17:35;97318.38;;;15.49;60.36
20971;BME280;10644;48.834;10.088;2023-02-17T16:23:18;97318.75;;;15.57;60.05
20971;BME280;10644;48.834;10.088;2023-02-17T16:29:16;97308.13;;;15.61;59.76
20971;BME280;10644;48.834;10.088;2023-02-17T16:31:42;97302.25;;;15.45;60.17
20971;BME280;10644;48.834;10.088;2023-02-17T16:34:23;97323.41;;;15.38;60.88
20971;BME280;10644;48.834;10.088;2023-02-17T16:37:13;97317.13;;;15.28;61.21
20971;BME280;10644;48.834;10.088;2023-02-17T16:39:40;97314.22;;;15.34;60.88
20971;BME280;10644;48.834;10.088;2023-02-17T16:42:14;97309.28;;;15.29;61.15
20971;BME280;10644;48.834;10.088;2023-02-17T16:47:35;97314.88;;;15.09;61.59
20971;BME280;10644;48.834;10.088;2023-02-17T16:53:32;97334.81;;;15.48;60.67